createdAt,value
2019-01-08T00:00:20.539Z,9.17
2019-01-08T00:02:49.184Z,9.37
2019-01-08T00:05:17.840Z,8.73
2019-01-08T00:07:46.476Z,8.60
2019-01-08T00:10:15.144Z,9.37
2019-01-08T00:12:43.797Z,8.23
2019-01-08T00:15:12.381Z,13.60
2019-01-08T00:17:41.082Z,10.63
2019-01-08T00:20:09.669Z,9.20
2019-01-08T00:22:39.489Z,9.10
2019-01-08T00:25:08.146Z,9.33
2019-01-08T00:27:36.774Z,9.33
2019-01-08T00:30:07.541Z,8.87
2019-01-08T00:32:36.187Z,9.03
2019-01-08T00:35:04.888Z,9.73
2019-01-08T00:37:33.548Z,8.90
2019-01-08T00:40:02.216Z,8.90
2019-01-08T00:42:30.841Z,8.40
2019-01-08T00:44:59.478Z,9.93
2019-01-08T00:47:28.058Z,9.17
2019-01-08T00:49:56.687Z,8.30
2019-01-08T00:52:25.389Z,8.80
2019-01-08T00:54:54.042Z,9.27
2019-01-08T00:57:22.599Z,8.53
2019-01-08T00:59:51.258Z,8.37
2019-01-08T01:02:19.898Z,9.30
2019-01-08T01:04:48.566Z,8.53
2019-01-08T01:07:17.205Z,9.27
2019-01-08T01:09:45.896Z,8.23
2019-01-08T01:12:14.546Z,9.03
2019-01-08T01:14:43.195Z,8.93
2019-01-08T01:17:11.854Z,9.30
2019-01-08T01:19:40.521Z,9.17
2019-01-08T01:22:09.178Z,9.47
2019-01-08T01:24:37.828Z,8.80
2019-01-08T01:27:06.528Z,8.00
2019-01-08T01:29:35.205Z,9.33
2019-01-08T01:32:03.883Z,9.43
2019-01-08T01:34:32.549Z,8.60
2019-01-08T01:37:01.174Z,9.63
2019-01-08T01:39:29.809Z,9.57
2019-01-08T01:41:58.491Z,9.43
2019-01-08T01:44:27.179Z,7.87
2019-01-08T01:46:55.846Z,8.60
2019-01-08T01:49:24.489Z,9.37
2019-01-08T01:51:53.150Z,8.13
2019-01-08T01:54:21.787Z,9.57
2019-01-08T01:56:50.617Z,8.40
2019-01-08T01:59:19.275Z,11.30
2019-01-08T02:01:47.993Z,10.00
2019-01-08T02:04:16.615Z,9.20
2019-01-08T02:06:45.268Z,9.93
2019-01-08T02:09:13.936Z,8.00
2019-01-08T02:11:42.599Z,8.30
2019-01-08T02:14:11.255Z,9.57
2019-01-08T02:16:39.909Z,7.47
2019-01-08T02:19:08.630Z,8.23
2019-01-08T02:21:37.267Z,7.50
2019-01-08T02:24:05.908Z,8.20
2019-01-08T02:26:34.577Z,7.47
2019-01-08T02:29:03.232Z,8.33
2019-01-08T02:31:31.876Z,8.17
2019-01-08T02:34:00.530Z,7.60
2019-01-08T02:36:29.216Z,7.83
2019-01-08T02:38:57.863Z,6.97
2019-01-08T02:41:26.530Z,7.67
2019-01-08T02:43:55.287Z,7.90
2019-01-08T02:46:23.991Z,7.87
2019-01-08T02:48:52.639Z,7.43
2019-01-08T02:51:21.303Z,7.60
2019-01-08T02:53:49.992Z,7.07
2019-01-08T02:56:18.589Z,7.90
2019-01-08T02:58:47.214Z,7.60
2019-01-08T03:01:15.885Z,7.47
2019-01-08T03:03:44.459Z,10.78
2019-01-08T03:06:13.112Z,8.27
2019-01-08T03:08:41.751Z,7.77
2019-01-08T03:11:10.449Z,6.90
2019-01-08T03:13:39.109Z,7.47
2019-01-08T03:16:07.748Z,6.10
2019-01-08T03:18:36.398Z,7.90
2019-01-08T03:21:05.064Z,6.93
2019-01-08T03:23:33.714Z,6.57
2019-01-08T03:26:02.338Z,7.80
2019-01-08T03:28:31.035Z,7.77
2019-01-08T03:30:59.691Z,6.47
2019-01-08T03:33:28.338Z,6.57
2019-01-08T03:35:56.979Z,7.37
2019-01-08T03:38:27.186Z,7.77
2019-01-08T03:40:55.936Z,6.90
2019-01-08T03:43:26.219Z,7.50
2019-01-08T03:45:54.926Z,7.07
2019-01-08T03:48:23.582Z,7.47
2019-01-08T03:50:52.242Z,7.40
2019-01-08T03:53:20.896Z,7.20
2019-01-08T03:55:49.558Z,7.17
2019-01-08T03:58:18.214Z,6.97
2019-01-08T04:00:46.839Z,7.37
2019-01-08T04:03:15.576Z,6.50
2019-01-08T04:05:45.854Z,6.20
2019-01-08T04:08:14.490Z,6.40
2019-01-08T04:10:43.142Z,6.77
2019-01-08T04:13:13.114Z,6.83
2019-01-08T04:15:41.774Z,8.07
2019-01-08T04:18:10.465Z,7.70
2019-01-08T04:20:39.166Z,8.17
2019-01-08T04:23:07.815Z,6.90
2019-01-08T04:25:36.460Z,7.47
2019-01-08T04:28:05.121Z,7.53
2019-01-08T04:30:33.769Z,7.47
2019-01-08T04:33:02.408Z,7.63
2019-01-08T04:35:31.038Z,7.80
2019-01-08T04:37:59.736Z,7.07
2019-01-08T04:40:28.385Z,7.67
2019-01-08T04:42:57.080Z,9.07
2019-01-08T04:45:26.100Z,7.00
2019-01-08T04:47:54.761Z,9.23
2019-01-08T04:50:25.443Z,10.27
2019-01-08T04:52:54.084Z,9.57
2019-01-08T04:55:22.778Z,12.25
2019-01-08T04:57:51.454Z,11.00
2019-01-08T05:00:20.125Z,10.27
2019-01-08T05:02:48.709Z,10.93
2019-01-08T05:05:17.361Z,10.27
2019-01-08T05:07:46.023Z,10.37
2019-01-08T05:10:14.699Z,9.63
2019-01-08T05:12:43.387Z,11.40
2019-01-08T05:15:12.024Z,9.53
2019-01-08T05:17:40.682Z,10.10
2019-01-08T05:20:09.441Z,11.13
2019-01-08T05:22:38.080Z,10.57
2019-01-08T05:25:06.745Z,10.57
2019-01-08T05:27:35.404Z,11.00
2019-01-08T05:30:08.071Z,10.97
2019-01-08T05:32:36.714Z,11.90
2019-01-08T05:35:06.260Z,11.67
2019-01-08T05:37:34.903Z,10.57
2019-01-08T05:40:04.167Z,10.47
2019-01-08T05:42:32.808Z,11.43
2019-01-08T05:45:01.394Z,10.93
2019-01-08T05:47:30.116Z,13.37
2019-01-08T05:49:58.785Z,12.17
2019-01-08T05:52:27.457Z,11.70
2019-01-08T05:54:56.114Z,11.33
2019-01-08T05:57:24.789Z,10.43
2019-01-08T05:59:53.428Z,12.03
2019-01-08T06:02:22.075Z,17.17
2019-01-08T06:04:50.776Z,12.93
2019-01-08T06:07:19.443Z,14.30
2019-01-08T06:09:48.077Z,9.67
2019-01-08T06:12:16.779Z,10.57
2019-01-08T06:14:45.493Z,10.83
2019-01-08T06:17:14.144Z,12.10
2019-01-08T06:19:42.797Z,11.87
2019-01-08T06:22:11.512Z,11.10
2019-01-08T06:24:40.167Z,11.37
2019-01-08T06:27:08.833Z,11.60
2019-01-08T06:29:37.484Z,12.60
2019-01-08T06:32:06.146Z,12.80
2019-01-08T06:34:34.921Z,10.17
2019-01-08T06:37:03.529Z,12.13
2019-01-08T06:39:32.241Z,13.43
2019-01-08T06:42:00.912Z,13.30
2019-01-08T06:44:29.564Z,12.57
2019-01-08T06:46:58.221Z,11.93
2019-01-08T06:49:26.884Z,11.60
2019-01-08T06:51:55.463Z,7.97
2019-01-08T06:54:24.112Z,12.70
2019-01-08T06:56:52.815Z,13.20
2019-01-08T06:59:21.488Z,12.63
2019-01-08T07:01:50.861Z,13.63
2019-01-08T07:04:19.498Z,14.07
2019-01-08T07:06:48.245Z,13.30
2019-01-08T07:09:16.939Z,12.80
2019-01-08T07:11:45.576Z,13.33
2019-01-08T07:14:14.274Z,11.67
2019-01-08T07:16:43.199Z,13.20
2019-01-08T07:19:11.856Z,12.87
2019-01-08T07:21:40.557Z,9.30
2019-01-08T07:24:09.211Z,12.67
2019-01-08T07:26:37.856Z,13.00
2019-01-08T07:29:09.820Z,12.20
2019-01-08T07:31:38.532Z,11.97
2019-01-08T07:34:07.187Z,13.00
2019-01-08T07:36:35.839Z,10.40
2019-01-08T07:39:05.533Z,11.97
2019-01-08T07:41:34.183Z,11.20
2019-01-08T07:44:02.815Z,11.73
2019-01-08T07:46:35.046Z,12.07
2019-01-08T07:49:05.014Z,11.20
2019-01-08T07:51:33.656Z,17.15
2019-01-08T07:54:02.307Z,13.77
2019-01-08T07:56:30.947Z,12.70
2019-01-08T07:58:59.706Z,12.03
2019-01-08T08:01:28.385Z,12.27
2019-01-08T08:03:57.047Z,11.40
2019-01-08T08:06:25.796Z,11.73
2019-01-08T08:08:54.414Z,13.50
2019-01-08T08:11:23.026Z,12.80
2019-01-08T08:13:51.722Z,11.77
2019-01-08T08:16:21.697Z,12.17
2019-01-08T08:18:53.238Z,10.97
2019-01-08T08:21:21.892Z,13.57
2019-01-08T08:23:50.588Z,14.07
2019-01-08T08:26:19.225Z,12.27
2019-01-08T08:28:47.896Z,12.43
2019-01-08T08:31:16.535Z,11.63
2019-01-08T08:33:45.345Z,12.40
2019-01-08T08:36:13.940Z,12.07
2019-01-08T08:38:42.550Z,12.50
2019-01-08T08:41:11.237Z,12.50
2019-01-08T08:43:39.920Z,14.23
2019-01-08T08:46:08.570Z,14.60
2019-01-08T08:48:37.213Z,13.70
2019-01-08T08:51:05.869Z,13.97
2019-01-08T08:53:34.525Z,13.20
2019-01-08T08:56:03.167Z,13.53
2019-01-08T08:58:31.832Z,13.60
2019-01-08T09:01:06.883Z,13.37
2019-01-08T09:03:30.797Z,14.23
2019-01-08T09:05:59.444Z,14.67
2019-01-08T09:08:28.083Z,13.47
2019-01-08T09:10:56.740Z,13.47
2019-01-08T09:13:25.382Z,13.13
2019-01-08T09:15:54.073Z,13.90
2019-01-08T09:18:22.725Z,14.00
2019-01-08T09:20:51.379Z,13.43
2019-01-08T09:23:20.009Z,13.57
2019-01-08T09:25:48.709Z,12.90
2019-01-08T09:28:17.353Z,14.43
2019-01-08T09:30:46.013Z,13.63
2019-01-08T09:33:14.704Z,15.10
2019-01-08T09:35:43.342Z,14.80
2019-01-08T09:38:12.020Z,15.43
2019-01-08T09:40:40.681Z,14.27
2019-01-08T09:43:09.355Z,15.17
2019-01-08T09:45:38.024Z,15.33
2019-01-08T09:48:06.665Z,15.53
2019-01-08T09:50:35.377Z,17.50
2019-01-08T09:53:03.958Z,13.50
2019-01-08T09:55:32.652Z,16.33
2019-01-08T09:58:01.412Z,16.37
2019-01-08T10:00:30.053Z,15.33
2019-01-08T10:02:58.701Z,16.70
2019-01-08T10:05:27.330Z,18.10
2019-01-08T10:07:56.106Z,17.63
2019-01-08T10:10:24.759Z,15.50
2019-01-08T10:12:53.385Z,18.23
2019-01-08T10:15:23.880Z,16.60
2019-01-08T10:17:52.523Z,15.37
2019-01-08T10:20:21.206Z,16.87
2019-01-08T10:22:49.835Z,17.63
2019-01-08T10:25:18.567Z,17.23
2019-01-08T10:27:47.239Z,16.53
2019-01-08T10:30:15.970Z,17.83
2019-01-08T10:32:44.552Z,24.82
2019-01-08T10:35:13.207Z,18.73
2019-01-08T10:37:41.890Z,17.87
2019-01-08T10:40:10.565Z,18.13
2019-01-08T10:42:39.270Z,19.43
2019-01-08T10:45:08.295Z,20.23
2019-01-08T10:47:36.952Z,19.17
2019-01-08T10:50:07.503Z,19.77
2019-01-08T10:52:36.167Z,19.40
2019-01-08T10:55:04.923Z,18.20
2019-01-08T10:57:33.564Z,19.37
2019-01-08T11:00:02.743Z,18.20
2019-01-08T11:02:32.730Z,18.33
2019-01-08T11:05:01.383Z,18.70
2019-01-08T11:07:29.976Z,17.00
2019-01-08T11:09:58.672Z,18.47
2019-01-08T11:12:27.342Z,20.13
2019-01-08T11:14:56.080Z,19.30
2019-01-08T11:17:24.863Z,19.57
2019-01-08T11:19:54.290Z,19.03
2019-01-08T11:22:22.923Z,19.93
2019-01-08T11:24:51.616Z,18.70
2019-01-08T11:27:23.538Z,18.50
2019-01-08T11:29:52.186Z,17.30
2019-01-08T11:32:22.403Z,18.50
2019-01-08T11:34:51.117Z,19.47
2019-01-08T11:37:19.780Z,20.43
2019-01-08T11:39:48.443Z,19.27
2019-01-08T11:42:17.080Z,19.43
2019-01-08T11:44:45.714Z,19.63
2019-01-08T11:47:14.367Z,19.00
2019-01-08T11:49:44.232Z,20.00
2019-01-08T11:52:12.971Z,21.53
2019-01-08T11:54:44.431Z,21.17
2019-01-08T11:57:14.203Z,20.73
2019-01-08T11:59:44.102Z,20.60
2019-01-08T12:02:12.741Z,19.70
2019-01-08T12:04:41.433Z,20.83
2019-01-08T12:07:10.269Z,22.03
2019-01-08T12:09:38.971Z,18.83
2019-01-08T12:12:07.639Z,21.00
2019-01-08T12:14:40.797Z,31.30
2019-01-08T12:17:09.436Z,24.27
2019-01-08T12:19:38.081Z,23.07
2019-01-08T12:22:06.748Z,23.10
2019-01-08T12:24:35.404Z,22.60
2019-01-08T12:27:04.039Z,22.47
2019-01-08T12:29:32.706Z,23.07
2019-01-08T12:32:05.926Z,25.93
2019-01-08T12:34:31.739Z,22.80
2019-01-08T12:37:00.365Z,25.50
2019-01-08T12:39:28.947Z,24.17
2019-01-08T12:41:57.609Z,24.30
2019-01-08T12:44:28.023Z,23.17
2019-01-08T12:46:57.328Z,24.57
2019-01-08T12:49:25.961Z,25.27
2019-01-08T12:51:54.622Z,23.80
2019-01-08T12:54:23.346Z,27.13
2019-01-08T12:56:51.996Z,25.30
2019-01-08T12:59:23.544Z,26.53
2019-01-08T13:01:52.202Z,26.17
2019-01-08T13:04:20.845Z,27.57
2019-01-08T13:06:49.494Z,28.60
2019-01-08T13:09:18.151Z,29.53
2019-01-08T13:11:46.804Z,26.30
2019-01-08T13:14:15.511Z,37.53
2019-01-08T13:16:44.220Z,26.33
2019-01-08T13:19:12.879Z,28.17
2019-01-08T13:21:41.530Z,26.20
2019-01-08T13:24:10.213Z,27.20
2019-01-08T13:26:38.842Z,27.83
2019-01-08T13:29:07.510Z,31.30
2019-01-08T13:31:36.160Z,31.10
2019-01-08T13:34:04.874Z,30.90
2019-01-08T13:36:33.546Z,31.47
2019-01-08T13:39:02.239Z,31.40
2019-01-08T13:41:30.868Z,32.40
2019-01-08T13:43:59.560Z,30.20
2019-01-08T13:46:28.210Z,32.30
2019-01-08T13:48:56.874Z,33.63
2019-01-08T13:51:25.573Z,35.03
2019-01-08T13:53:54.228Z,29.60
2019-01-08T13:56:22.873Z,31.90
2019-01-08T13:58:51.538Z,31.87
2019-01-08T14:01:20.206Z,33.50
2019-01-08T14:03:48.852Z,32.67
2019-01-08T14:06:17.483Z,35.77
2019-01-08T14:08:46.213Z,37.70
2019-01-08T14:11:14.889Z,38.57
2019-01-08T14:13:43.546Z,35.33
2019-01-08T14:16:12.204Z,41.67
2019-01-08T14:18:40.884Z,38.07
2019-01-08T14:21:09.606Z,36.63
2019-01-08T14:23:38.239Z,38.20
2019-01-08T14:26:06.964Z,37.77
2019-01-08T14:28:35.621Z,37.37
2019-01-08T14:31:04.224Z,40.73
2019-01-08T14:33:32.848Z,38.63
2019-01-08T14:36:01.498Z,49.73
2019-01-08T14:38:30.186Z,53.73
2019-01-08T14:40:58.841Z,53.30
2019-01-08T14:43:27.750Z,48.87
2019-01-08T14:45:56.438Z,46.50
2019-01-08T14:48:25.108Z,47.30
2019-01-08T14:50:53.778Z,61.30
2019-01-08T14:53:22.429Z,46.80
2019-01-08T14:55:51.097Z,46.40
2019-01-08T14:58:19.778Z,43.60
2019-01-08T15:00:48.508Z,43.00
2019-01-08T15:03:17.184Z,36.80
2019-01-08T15:05:45.844Z,33.83
2019-01-08T15:08:14.511Z,40.43
2019-01-08T15:10:43.146Z,52.80
2019-01-08T15:13:11.844Z,40.13
2019-01-08T15:15:40.498Z,40.63
2019-01-08T15:18:09.198Z,53.03
2019-01-08T15:20:38.980Z,53.13
2019-01-08T15:23:07.828Z,64.25
2019-01-08T15:25:36.523Z,40.75
2019-01-08T15:28:05.220Z,44.97
2019-01-08T15:30:33.868Z,41.77
2019-01-08T15:33:02.542Z,44.57
2019-01-08T15:35:31.234Z,41.17
2019-01-08T15:37:59.908Z,44.13
2019-01-08T15:40:28.597Z,48.60
2019-01-08T15:42:57.277Z,49.60
2019-01-08T15:45:27.763Z,45.63
2019-01-08T15:47:56.481Z,51.10
2019-01-08T15:50:25.125Z,46.93
2019-01-08T15:52:53.824Z,46.70
2019-01-08T15:55:29.108Z,47.73
2019-01-08T15:57:57.848Z,50.27
2019-01-08T16:00:26.493Z,54.43
2019-01-08T16:02:55.170Z,52.20
2019-01-08T16:05:25.416Z,55.20
2019-01-08T16:07:54.077Z,52.27
2019-01-08T16:10:22.750Z,57.23
2019-01-08T16:12:51.402Z,60.57
2019-01-08T16:15:20.109Z,53.67
2019-01-08T16:17:48.823Z,58.47
2019-01-08T16:20:17.497Z,56.07
2019-01-08T16:22:46.211Z,74.53
2019-01-08T16:25:14.883Z,64.97
2019-01-08T16:27:43.489Z,68.13
2019-01-08T16:30:12.139Z,66.30
2019-01-08T16:32:40.860Z,63.70
2019-01-08T16:35:09.527Z,66.60
2019-01-08T16:37:38.217Z,66.50
2019-01-08T16:40:09.375Z,63.37
2019-01-08T16:42:38.130Z,76.90
2019-01-08T16:45:06.816Z,79.97
2019-01-08T16:47:35.511Z,84.80
2019-01-08T16:50:04.719Z,85.37
2019-01-08T16:52:33.412Z,87.50
2019-01-08T16:55:02.075Z,85.00
2019-01-08T16:57:30.793Z,85.80
2019-01-08T16:59:59.467Z,86.47
2019-01-08T17:02:28.124Z,85.17
2019-01-08T17:04:56.768Z,83.70
2019-01-08T17:07:25.455Z,81.13
2019-01-08T17:09:54.115Z,78.13
2019-01-08T17:12:22.768Z,82.07
2019-01-08T17:14:51.454Z,82.23
2019-01-08T17:17:20.101Z,93.10
2019-01-08T17:19:48.768Z,108.97
2019-01-08T17:22:20.536Z,100.33
2019-01-08T17:24:49.233Z,107.27
2019-01-08T17:27:17.923Z,123.57
2019-01-08T17:29:46.604Z,123.60
2019-01-08T17:32:15.309Z,122.07
2019-01-08T17:34:43.984Z,113.20
2019-01-08T17:37:12.662Z,98.33
2019-01-08T17:39:41.299Z,75.47
2019-01-08T17:42:10.037Z,86.53
2019-01-08T17:44:38.704Z,88.83
2019-01-08T17:47:07.368Z,92.10
2019-01-08T17:49:36.103Z,103.72
2019-01-08T17:52:04.825Z,84.97
2019-01-08T17:54:33.475Z,92.10
2019-01-08T17:57:02.107Z,95.00
2019-01-08T17:59:30.865Z,97.30
2019-01-08T18:01:59.569Z,114.83
2019-01-08T18:04:28.264Z,123.13
2019-01-08T18:06:56.960Z,128.53
2019-01-08T18:09:25.605Z,142.53
2019-01-08T18:11:54.284Z,145.13
2019-01-08T18:14:22.990Z,138.20
2019-01-08T18:16:51.725Z,115.23
2019-01-08T18:19:20.369Z,123.00
2019-01-08T18:21:49.028Z,107.33
2019-01-08T18:24:17.684Z,101.33
2019-01-08T18:26:46.395Z,105.27
2019-01-08T18:29:15.186Z,80.30
2019-01-08T18:31:43.878Z,95.07
2019-01-08T18:34:12.580Z,50.97
2019-01-08T18:36:41.280Z,54.83
2019-01-08T18:39:10.016Z,59.87
2019-01-08T18:41:38.668Z,57.50
2019-01-08T18:44:07.388Z,57.00
2019-01-08T18:46:36.027Z,58.93
2019-01-08T18:49:04.729Z,63.60
2019-01-08T18:51:33.459Z,55.03
2019-01-08T18:54:02.155Z,50.63
2019-01-08T18:56:30.852Z,70.12
2019-01-08T18:58:59.539Z,57.53
2019-01-08T19:01:28.228Z,53.73
2019-01-08T19:03:59.891Z,55.47
2019-01-08T19:06:28.283Z,44.23
2019-01-08T19:09:28.929Z,40.10
2019-01-08T19:11:57.663Z,43.93
2019-01-08T19:14:29.685Z,44.20
2019-01-08T19:16:58.444Z,44.43
2019-01-08T19:19:28.677Z,47.60
2019-01-08T19:21:57.332Z,49.03
2019-01-08T19:24:25.997Z,50.63
2019-01-08T19:26:54.707Z,50.70
2019-01-08T19:29:23.385Z,52.63
2019-01-08T19:31:52.138Z,51.23
2019-01-08T19:34:20.807Z,48.10
2019-01-08T19:36:49.500Z,49.33
2019-01-08T19:39:18.173Z,59.67
2019-01-08T19:41:48.508Z,53.83
2019-01-08T19:44:17.216Z,67.10
2019-01-08T19:46:46.071Z,74.63
2019-01-08T19:49:14.738Z,67.10
2019-01-08T19:51:43.427Z,64.03
2019-01-08T19:54:12.105Z,66.10
2019-01-08T19:56:40.804Z,61.07
2019-01-08T19:59:09.437Z,60.40
2019-01-08T20:01:38.156Z,63.67
2019-01-08T20:04:06.854Z,75.33
2019-01-08T20:06:35.531Z,71.93
2019-01-08T20:09:05.470Z,73.63
2019-01-08T20:11:34.135Z,68.50
2019-01-08T20:14:02.783Z,82.00
2019-01-08T20:16:34.184Z,129.07
2019-01-08T20:19:02.854Z,98.37
2019-01-08T20:21:31.510Z,94.60
2019-01-08T20:24:06.277Z,92.50
2019-01-08T20:26:33.064Z,89.43
2019-01-08T20:29:04.677Z,94.50
2019-01-08T20:31:33.348Z,90.87
2019-01-08T20:34:02.143Z,91.93
2019-01-08T20:36:30.879Z,80.60
2019-01-08T20:39:00.779Z,91.67
2019-01-08T20:41:29.396Z,87.27
2019-01-08T20:43:58.139Z,79.67
2019-01-08T20:46:26.806Z,89.17
2019-01-08T20:48:55.459Z,88.00
2019-01-08T20:51:24.107Z,90.17
2019-01-08T20:53:52.778Z,76.60
2019-01-08T20:56:21.488Z,77.73
2019-01-08T20:58:50.239Z,93.77
2019-01-08T21:01:18.946Z,87.87
2019-01-08T21:03:47.656Z,87.13
2019-01-08T21:06:16.313Z,97.03
2019-01-08T21:08:45.118Z,87.37
2019-01-08T21:11:13.848Z,73.83
2019-01-08T21:13:42.521Z,70.43
2019-01-08T21:16:12.722Z,70.33
2019-01-08T21:18:41.390Z,77.37
2019-01-08T21:21:10.093Z,71.83
2019-01-08T21:23:38.746Z,68.70
2019-01-08T21:26:07.447Z,63.87
2019-01-08T21:28:36.099Z,99.97
2019-01-08T21:31:04.747Z,95.87
2019-01-08T21:33:33.418Z,94.93
2019-01-08T21:36:02.152Z,98.53
2019-01-08T21:38:30.815Z,104.17
2019-01-08T21:41:00.594Z,97.97
2019-01-08T21:43:29.237Z,92.97
2019-01-08T21:46:00.692Z,114.97
2019-01-08T21:48:29.355Z,100.43
2019-01-08T21:50:58.067Z,106.13
2019-01-08T21:53:46.046Z,76.73
2019-01-08T21:56:14.733Z,74.53
2019-01-08T21:58:43.473Z,69.57
2019-01-08T22:01:12.165Z,81.53
2019-01-08T22:03:40.796Z,86.40
2019-01-08T22:06:09.465Z,93.00
2019-01-08T22:08:38.115Z,86.00
2019-01-08T22:11:06.797Z,78.93
2019-01-08T22:13:35.431Z,73.43
2019-01-08T22:16:04.016Z,62.40
2019-01-08T22:18:32.755Z,59.90
2019-01-08T22:21:01.441Z,60.93
2019-01-08T22:23:30.142Z,59.03
2019-01-08T22:25:58.798Z,56.83
2019-01-08T22:28:27.460Z,57.73
2019-01-08T22:30:56.154Z,59.17
2019-01-08T22:33:24.792Z,53.80
2019-01-08T22:35:53.454Z,51.10
2019-01-08T22:38:22.164Z,44.00
2019-01-08T22:40:50.815Z,38.53
2019-01-08T22:43:19.485Z,38.87
2019-01-08T22:45:48.144Z,38.30
2019-01-08T22:48:16.720Z,41.60
2019-01-08T22:50:45.380Z,40.27
2019-01-08T22:53:16.882Z,44.23
2019-01-08T22:55:45.272Z,46.60
2019-01-08T22:58:13.928Z,49.77
2019-01-08T23:01:02.756Z,44.27
2019-01-08T23:03:31.373Z,40.07
2019-01-08T23:06:00.054Z,38.43
2019-01-08T23:08:28.767Z,37.63
2019-01-08T23:10:57.414Z,38.37
2019-01-08T23:13:26.086Z,40.43
2019-01-08T23:15:54.822Z,36.83
2019-01-08T23:18:23.479Z,38.07
2019-01-08T23:20:52.168Z,38.90
2019-01-08T23:23:20.860Z,39.27
2019-01-08T23:25:49.941Z,44.03
2019-01-08T23:28:18.586Z,35.67
2019-01-08T23:30:47.218Z,36.70
2019-01-08T23:33:15.881Z,30.00
2019-01-08T23:35:44.519Z,20.90
2019-01-08T23:38:13.230Z,33.78
2019-01-08T23:40:41.898Z,20.17
2019-01-08T23:43:10.545Z,19.90
2019-01-08T23:45:39.245Z,19.93
2019-01-08T23:48:07.810Z,20.67
2019-01-08T23:50:36.388Z,21.93
2019-01-08T23:53:09.783Z,22.33
2019-01-08T23:55:40.984Z,20.90
2019-01-08T23:58:13.001Z,22.67
